Crossville Memorial Whitson Field
KCSV : now visible

Airfield :











YOU CAN JOIN US ON...

 
LOGIN :

Register | Disclaimer

   EN    FR    IT 

 









Legend :    VFR   Marginal VFR   IFR   Intensive IFR   Very Intensive IFR
Visi :
Ceiling :
>= 8 km
>= 3000ft
5 to 8 km
1000 to 3000 ft
1500m to 5 km
500 to 1000 ft
800 to 1500m
200 to 500 ft
< 800m
< 200 ft
Symbols :   Thunderstorms  Fog  Heavy snow  Heavy precipitations  Wind > 20 kt






- Airport Elevation : 1881 ft


KCSV - Crossville Memorial Whitson Field

CURRENT METAR :
  • 071953Z AUTO 30010KT 10SM FEW047 SCT060 21/11 A3019 RMK AO2 WSHFT 1911 SLP213 T02060111

EXPIRED METARs :
  • 071931Z AUTO 32011G18KT 10SM SCT047 BKN060 21/11 A3019 RMK AO2 WSHFT 1911 T02110111
  • 071853Z AUTO 33011KT 10SM SCT049 21/11 A3019 RMK AO2 SLP215 T02110111
  • 071753Z AUTO 28009G17KT 250V310 10SM FEW045 22/11 A3022 RMK AO2 SLP221 T02170111 10222 20078 58004
  • 071653Z AUTO 30008KT 10SM CLR 21/11 A3023 RMK AO2 SLP226 T02110106

TAF KCSV
Valid from the 07 at 18:00 until the 08 at 18:00 UTC


071739Z 0718/0818 32008KT P6SM SKC
FM080000 36005KT P6SM SKC
KZTL FIR / North America



MET'MAP, your aeronautical weather chart ! - Copyright ORBIFLY December 2007 - Disclaimer

ORBIFLY MET'MAP TEAM :

Programming & Development : Alexandra Zaïnal
Original concept : Baudouin d'Aumeries
Technical & hardware support : Manuel Goepfert
Assistance : Marc-Olivier Méhu




SOURCES & CREDITS :

   NOAA       Earth
Advisory